createdAt,value
2023-04-13T00:01:03.033Z,4.28
2023-04-13T00:03:39.847Z,4.13
2023-04-13T00:06:19.357Z,4.13
2023-04-13T00:09:41.168Z,4.07
2023-04-13T00:13:00.614Z,4.18
2023-04-13T00:15:31.937Z,4.38
2023-04-13T00:18:02.178Z,4.57
2023-04-13T00:20:34.429Z,4.75
2023-04-13T00:23:20.436Z,4.30
2023-04-13T00:26:27.606Z,4.32
2023-04-13T00:29:20.704Z,4.68
2023-04-13T00:31:54.108Z,4.07
2023-04-13T00:34:23.848Z,3.88
2023-04-13T00:36:56.756Z,4.53
2023-04-13T00:39:37.166Z,4.15
2023-04-13T00:42:18.193Z,3.15
2023-04-13T00:45:11.148Z,4.18
2023-04-13T00:48:05.502Z,3.90
2023-04-13T00:54:46.911Z,3.67
2023-04-13T01:05:17.895Z,3.83
2023-04-13T01:08:43.065Z,3.10
2023-04-13T01:14:38.985Z,3.90
2023-04-13T01:17:23.401Z,3.92
2023-04-13T01:20:12.441Z,3.58
2023-04-13T01:22:47.279Z,3.90
2023-04-13T01:25:23.209Z,4.20
2023-04-13T01:28:05.405Z,3.95
2023-04-13T01:30:39.619Z,3.90
2023-04-13T01:33:09.014Z,3.47
2023-04-13T01:35:38.512Z,3.72
2023-04-13T01:38:07.252Z,4.07
2023-04-13T01:40:37.371Z,3.55
2023-04-13T01:43:05.029Z,3.85
2023-04-13T01:45:48.775Z,3.65
2023-04-13T01:48:26.291Z,3.55
2023-04-13T01:51:15.705Z,3.72
2023-04-13T01:54:01.394Z,3.70
2023-04-13T01:56:32.404Z,3.83
2023-04-13T01:59:06.917Z,4.15
2023-04-13T02:01:43.669Z,4.00
2023-04-13T02:04:14.183Z,4.22
2023-04-13T02:06:52.945Z,3.90
2023-04-13T02:09:49.787Z,3.70
2023-04-13T02:12:18.309Z,3.92
2023-04-13T02:14:46.397Z,4.18
2023-04-13T02:17:15.842Z,3.88
2023-04-13T02:19:59.375Z,4.07
2023-04-13T02:22:27.431Z,4.32
2023-04-13T02:24:57.880Z,3.80
2023-04-13T02:27:29.121Z,3.78
2023-04-13T02:29:56.969Z,4.07
2023-04-13T02:32:26.049Z,4.40
2023-04-13T02:34:53.540Z,4.03
2023-04-13T02:37:21.400Z,3.92
2023-04-13T02:43:50.053Z,3.90
2023-04-13T02:46:21.371Z,3.83
2023-04-13T02:48:55.060Z,4.18
2023-04-13T02:51:25.153Z,3.78
2023-04-13T02:53:52.758Z,4.30
2023-04-13T02:56:22.650Z,4.10
2023-04-13T02:58:54.613Z,4.50
2023-04-13T03:01:27.084Z,4.05
2023-04-13T03:03:55.325Z,3.90
2023-04-13T03:06:26.114Z,3.92
2023-04-13T03:09:05.102Z,4.05
2023-04-13T03:11:43.057Z,4.28
2023-04-13T03:14:21.997Z,4.10
2023-04-13T03:16:54.905Z,4.18
2023-04-13T03:19:26.512Z,3.90
2023-04-13T03:21:53.355Z,4.25
2023-04-13T03:24:27.559Z,4.70
2023-04-13T03:26:58.174Z,4.38
2023-04-13T03:29:32.623Z,4.43
2023-04-13T03:32:00.249Z,4.50
2023-04-13T03:34:31.093Z,4.65
2023-04-13T03:37:01.009Z,4.20
2023-04-13T03:39:29.171Z,4.20
2023-04-13T03:41:56.112Z,4.45
2023-04-13T03:44:23.578Z,4.53
2023-04-13T03:46:52.219Z,5.03
2023-04-13T03:49:35.810Z,4.78
2023-04-13T03:52:23.236Z,4.90
2023-04-13T03:54:56.810Z,4.60
2023-04-13T03:57:27.608Z,5.50
2023-04-13T03:59:59.629Z,4.93
2023-04-13T04:02:42.619Z,5.10
2023-04-13T04:05:17.245Z,5.28
2023-04-13T04:07:52.511Z,4.85
2023-04-13T04:10:23.249Z,6.03
2023-04-13T04:12:53.576Z,5.47
2023-04-13T04:15:21.217Z,5.07
2023-04-13T04:17:54.659Z,4.95
2023-04-13T04:20:24.651Z,4.95
2023-04-13T04:22:54.688Z,4.60
2023-04-13T04:25:22.974Z,5.55
2023-04-13T04:27:53.596Z,5.20
2023-04-13T04:30:29.887Z,5.50
2023-04-13T04:32:57.297Z,5.00
2023-04-13T04:35:35.730Z,4.78
2023-04-13T04:38:06.672Z,4.90
2023-04-13T04:40:36.324Z,4.82
2023-04-13T04:43:06.783Z,4.38
2023-04-13T04:45:51.774Z,4.15
2023-04-13T04:48:39.178Z,4.50
2023-04-13T04:51:08.482Z,4.95
2023-04-13T04:53:35.939Z,4.75
2023-04-13T04:56:09.005Z,4.22
2023-04-13T04:58:42.209Z,4.60
2023-04-13T05:01:13.293Z,4.38
2023-04-13T05:03:41.429Z,5.03
2023-04-13T05:06:25.642Z,4.90
2023-04-13T05:08:52.797Z,4.78
2023-04-13T05:11:20.774Z,5.13
2023-04-13T05:14:01.585Z,4.93
2023-04-13T05:16:39.844Z,4.82
2023-04-13T05:19:33.641Z,5.22
2023-04-13T05:22:43.955Z,4.60
2023-04-13T05:25:14.945Z,5.00
2023-04-13T05:27:44.848Z,4.57
2023-04-13T05:30:12.719Z,4.35
2023-04-13T05:32:48.071Z,5.43
2023-04-13T05:35:30.275Z,4.97
2023-04-13T05:38:05.971Z,5.63
2023-04-13T05:41:32.369Z,5.25
2023-04-13T05:44:10.075Z,5.75
2023-04-13T05:46:38.355Z,5.40
2023-04-13T05:49:06.417Z,5.53
2023-04-13T05:51:34.879Z,4.90
2023-04-13T05:54:02.665Z,5.40
2023-04-13T05:56:34.348Z,5.43
2023-04-13T05:59:01.490Z,5.60
2023-04-13T06:01:29.800Z,5.10
2023-04-13T06:03:57.148Z,4.93
2023-04-13T06:06:25.061Z,4.28
2023-04-13T06:08:53.079Z,4.88
2023-04-13T06:11:21.526Z,4.45
2023-04-13T06:13:48.285Z,4.40
2023-04-13T06:16:15.522Z,4.57
2023-04-13T06:18:43.002Z,4.40
2023-04-13T06:21:12.702Z,5.00
2023-04-13T06:23:39.478Z,4.50
2023-04-13T06:26:17.142Z,4.57
2023-04-13T06:28:49.135Z,5.65
2023-04-13T06:31:16.681Z,4.45
2023-04-13T06:33:45.998Z,5.82
2023-04-13T06:36:13.702Z,5.63
2023-04-13T06:38:40.622Z,4.57
2023-04-13T06:41:12.020Z,4.68
2023-04-13T06:43:40.641Z,4.63
2023-04-13T06:46:16.700Z,4.15
2023-04-13T06:48:46.879Z,4.10
2023-04-13T06:51:15.626Z,4.57
2023-04-13T06:53:42.788Z,4.97
2023-04-13T06:56:09.431Z,4.60
2023-04-13T06:58:36.839Z,4.45
2023-04-13T07:01:08.534Z,4.38
2023-04-13T07:03:37.705Z,5.32
2023-04-13T07:06:06.123Z,4.55
2023-04-13T07:08:34.729Z,5.18
2023-04-13T07:11:02.605Z,5.07
2023-04-13T07:13:34.743Z,4.68
2023-04-13T07:16:02.810Z,5.35
2023-04-13T07:18:33.649Z,4.85
2023-04-13T07:21:01.372Z,4.20
2023-04-13T07:23:34.528Z,3.92
2023-04-13T07:26:02.496Z,4.75
2023-04-13T07:28:34.066Z,4.80
2023-04-13T07:31:02.639Z,5.00
2023-04-13T07:33:30.136Z,4.93
2023-04-13T07:35:57.308Z,5.20
2023-04-13T07:38:28.348Z,4.55
2023-04-13T07:40:55.500Z,5.03
2023-04-13T07:43:26.459Z,5.63
2023-04-13T07:45:55.616Z,6.63
2023-04-13T07:48:22.433Z,6.43
2023-04-13T07:50:49.409Z,6.97
2023-04-13T07:53:21.116Z,6.60
2023-04-13T07:55:48.416Z,6.22
2023-04-13T07:58:15.315Z,5.90
2023-04-13T08:00:42.222Z,5.88
2023-04-13T08:03:09.244Z,6.13
2023-04-13T08:05:37.450Z,6.20
2023-04-13T08:08:04.446Z,6.35
2023-04-13T08:10:31.276Z,5.57
2023-04-13T08:13:01.774Z,5.47
2023-04-13T08:15:29.055Z,6.38
2023-04-13T08:17:55.921Z,6.68
2023-04-13T08:20:24.222Z,6.05
2023-04-13T08:22:53.027Z,5.47
2023-04-13T08:25:21.104Z,5.82
2023-04-13T08:27:47.925Z,6.93
2023-04-13T08:30:14.889Z,5.75
2023-04-13T08:32:53.803Z,5.63
2023-04-13T08:35:22.351Z,5.47
2023-04-13T08:37:49.275Z,5.53
2023-04-13T08:40:18.553Z,5.60
2023-04-13T08:42:47.143Z,5.55
2023-04-13T08:45:15.654Z,5.55
2023-04-13T08:47:46.842Z,5.30
2023-04-13T08:50:16.373Z,5.53
2023-04-13T08:52:51.790Z,5.95
2023-04-13T08:55:18.702Z,5.15
2023-04-13T08:57:51.211Z,5.03
2023-04-13T09:00:21.950Z,4.50
2023-04-13T09:03:05.148Z,5.63
2023-04-13T09:05:38.924Z,5.45
2023-04-13T09:08:08.166Z,5.38
2023-04-13T09:10:37.616Z,4.80
2023-04-13T09:13:05.875Z,4.88
2023-04-13T09:15:33.065Z,4.70
2023-04-13T09:18:23.515Z,4.53
2023-04-13T09:21:00.667Z,5.22
2023-04-13T09:23:27.500Z,4.80
2023-04-13T09:26:09.956Z,4.60
2023-04-13T09:28:51.710Z,5.15
2023-04-13T09:31:19.814Z,4.70
2023-04-13T09:33:48.797Z,4.05
2023-04-13T09:36:20.721Z,4.20
2023-04-13T09:38:52.836Z,4.80
2023-04-13T09:41:37.310Z,4.05
2023-04-13T09:44:18.117Z,5.28
2023-04-13T09:46:56.682Z,4.53
2023-04-13T09:49:24.192Z,4.55
2023-04-13T09:51:51.138Z,4.03
2023-04-13T09:54:22.174Z,3.92
2023-04-13T09:56:55.726Z,4.00
2023-04-13T09:59:26.073Z,3.72
2023-04-13T10:01:56.215Z,3.90
2023-04-13T10:04:26.360Z,3.97
2023-04-13T10:06:53.714Z,3.85
2023-04-13T10:09:21.273Z,3.58
2023-04-13T10:11:51.608Z,3.35
2023-04-13T10:14:27.282Z,3.15
2023-04-13T10:17:12.955Z,3.25
2023-04-13T10:22:15.354Z,3.80
2023-04-13T10:24:47.268Z,3.80
2023-04-13T10:27:47.733Z,3.28
2023-04-13T10:38:53.888Z,3.50
2023-04-13T10:41:26.142Z,3.63
2023-04-13T10:44:19.071Z,3.00
2023-04-13T10:46:51.103Z,3.63
2023-04-13T10:49:18.265Z,3.35
2023-04-13T10:51:45.677Z,3.08
2023-04-13T10:54:14.467Z,3.20
2023-04-13T10:56:45.217Z,3.45
2023-04-13T10:59:18.471Z,3.28
2023-04-13T11:01:46.263Z,3.55
2023-04-13T11:04:20.859Z,3.10
2023-04-13T11:06:54.857Z,3.60
2023-04-13T11:09:25.156Z,3.35
2023-04-13T11:11:52.451Z,3.20
2023-04-13T11:14:22.786Z,3.05
2023-04-13T11:16:58.488Z,3.20
2023-04-13T11:19:25.628Z,3.85
2023-04-13T11:21:58.145Z,3.00
2023-04-13T11:24:30.407Z,3.60
2023-04-13T11:26:58.108Z,3.80
2023-04-13T11:29:24.979Z,3.33
2023-04-13T11:31:53.697Z,4.00
2023-04-13T11:34:26.265Z,3.95
2023-04-13T11:37:03.039Z,3.65
2023-04-13T11:39:30.010Z,3.80
2023-04-13T11:41:57.430Z,3.30
2023-04-13T11:44:27.528Z,3.13
2023-04-13T11:46:57.127Z,4.28
2023-04-13T11:49:26.469Z,4.68
2023-04-13T11:51:53.927Z,3.35
2023-04-13T11:54:24.020Z,3.30
2023-04-13T11:58:38.452Z,4.50
2023-04-13T12:05:15.117Z,3.30
2023-04-13T13:06:20.739Z,3.42
2023-04-13T13:09:33.893Z,4.17
2023-04-13T13:13:04.894Z,3.45
2023-04-13T13:15:55.731Z,3.50
2023-04-13T13:23:06.238Z,3.70
2023-04-13T13:26:17.717Z,3.83
2023-04-13T13:28:40.220Z,3.42
2023-04-13T13:31:08.375Z,4.07
2023-04-13T13:33:35.181Z,4.07
2023-04-13T13:36:02.617Z,3.67
2023-04-13T13:38:29.485Z,3.75
2023-04-13T13:40:56.490Z,3.92
2023-04-13T13:43:23.281Z,4.15
2023-04-13T13:45:50.322Z,3.88
2023-04-13T13:48:18.574Z,3.70
2023-04-13T13:50:55.961Z,4.85
2023-04-13T13:53:24.349Z,4.20
2023-04-13T13:55:51.165Z,4.10
2023-04-13T13:58:18.191Z,5.10
2023-04-13T14:00:45.035Z,4.63
2023-04-13T14:03:16.626Z,4.57
2023-04-13T14:05:43.563Z,4.13
2023-04-13T14:08:10.724Z,4.38
2023-04-13T14:10:38.129Z,4.55
2023-04-13T14:13:07.607Z,4.80
2023-04-13T14:15:34.733Z,4.57
2023-04-13T14:18:09.670Z,5.53
2023-04-13T14:20:47.280Z,4.82
2023-04-13T14:23:16.737Z,5.05
2023-04-13T14:25:52.694Z,5.00
2023-04-13T14:28:22.217Z,4.85
2023-04-13T14:39:51.066Z,5.43
2023-04-13T14:46:23.982Z,4.95
2023-04-13T14:49:27.735Z,5.13
2023-04-13T14:59:43.522Z,5.07
2023-04-13T15:02:10.649Z,6.38
2023-04-13T15:04:44.431Z,5.90
2023-04-13T15:11:01.155Z,5.00
2023-04-13T15:13:58.409Z,4.93
2023-04-13T15:16:52.648Z,5.00
2023-04-13T15:19:50.023Z,5.30
2023-04-13T15:22:21.990Z,5.18
2023-04-13T15:24:48.999Z,5.15
2023-04-13T15:27:46.939Z,5.70
2023-04-13T15:30:43.255Z,5.65
2023-04-13T15:33:18.556Z,5.38
2023-04-13T15:35:45.652Z,5.40
2023-04-13T15:38:35.218Z,5.90
2023-04-13T15:41:04.689Z,5.75
2023-04-13T15:43:31.606Z,5.53
2023-04-13T15:45:58.559Z,4.88
2023-04-13T15:48:27.751Z,5.43
2023-04-13T15:51:00.379Z,5.55
2023-04-13T15:53:46.968Z,5.28
2023-04-13T15:56:21.987Z,6.22
2023-04-13T15:58:54.091Z,5.50
2023-04-13T16:01:22.821Z,6.00
2023-04-13T16:03:52.667Z,5.13
2023-04-13T16:06:21.728Z,5.50
2023-04-13T16:08:51.103Z,5.60
2023-04-13T16:11:20.810Z,5.10
2023-04-13T16:13:50.581Z,5.20
2023-04-13T16:16:24.304Z,5.93
2023-04-13T16:18:51.776Z,5.13
2023-04-13T16:21:22.701Z,5.97
2023-04-13T16:24:03.533Z,5.68
2023-04-13T16:47:53.265Z,5.28
2023-04-13T16:55:53.466Z,7.55
2023-04-13T17:15:17.926Z,5.47
2023-04-13T17:18:12.345Z,4.32
2023-04-13T17:21:41.529Z,4.45
2023-04-13T17:24:33.288Z,4.80
2023-04-13T17:27:23.951Z,5.30
2023-04-13T17:40:04.431Z,5.00
2023-04-13T17:42:33.566Z,4.68
2023-04-13T17:45:02.260Z,4.32
2023-04-13T17:47:32.365Z,4.68
2023-04-13T17:50:16.513Z,5.10
2023-04-13T17:52:48.587Z,5.10
2023-04-13T17:55:15.518Z,4.75
2023-04-13T17:57:42.742Z,5.38
2023-04-13T18:00:18.044Z,5.30
2023-04-13T18:02:49.228Z,5.07
2023-04-13T18:05:18.210Z,5.38
2023-04-13T18:07:45.216Z,5.55
2023-04-13T18:10:12.170Z,4.93
2023-04-13T18:12:41.699Z,5.40
2023-04-13T18:15:09.345Z,5.20
2023-04-13T18:17:38.831Z,6.00
2023-04-13T18:20:34.663Z,5.70
2023-04-13T18:23:12.074Z,6.25
2023-04-13T18:26:04.948Z,6.53
2023-04-13T18:28:39.112Z,7.32
2023-04-13T18:35:02.859Z,8.80
2023-04-13T18:37:37.594Z,6.63
2023-04-13T18:40:13.862Z,6.38
2023-04-13T18:45:32.958Z,6.38
2023-04-13T18:51:15.152Z,6.45
2023-04-13T18:53:42.360Z,6.78
2023-04-13T18:56:12.292Z,6.53
2023-04-13T19:03:01.503Z,6.75
2023-04-13T19:08:34.555Z,6.90
2023-04-13T19:11:01.710Z,7.28
2023-04-13T19:13:28.564Z,6.63
2023-04-13T19:15:57.473Z,5.88
2023-04-13T19:18:25.079Z,6.25
2023-04-13T19:20:52.030Z,5.25
2023-04-13T19:23:19.113Z,5.25
2023-04-13T19:25:46.129Z,5.47
2023-04-13T19:28:13.062Z,4.65
2023-04-13T19:30:47.810Z,5.22
2023-04-13T19:33:27.818Z,5.35
2023-04-13T19:36:07.082Z,5.53
2023-04-13T19:38:50.080Z,4.80
2023-04-13T19:41:34.476Z,5.18
2023-04-13T19:44:17.862Z,5.47
2023-04-13T19:46:49.948Z,4.30
2023-04-13T19:49:20.134Z,5.00
2023-04-13T19:51:47.478Z,4.50
2023-04-13T19:54:15.622Z,5.57
2023-04-13T19:56:59.951Z,4.55
2023-04-13T19:59:52.910Z,4.45
2023-04-13T20:02:36.174Z,4.40
2023-04-13T20:29:47.449Z,4.47
2023-04-13T20:32:24.636Z,4.80
2023-04-13T20:35:30.061Z,4.95
2023-04-13T20:38:20.714Z,4.95
2023-04-13T20:40:48.877Z,4.30
2023-04-13T20:43:15.849Z,4.97
2023-04-13T20:45:45.600Z,4.65
2023-04-13T20:53:23.672Z,5.40
2023-04-13T20:58:29.148Z,4.63
2023-04-13T21:00:56.120Z,4.95
2023-04-13T21:03:34.943Z,4.72
2023-04-13T21:06:32.138Z,4.72
2023-04-13T21:09:10.218Z,5.32
2023-04-13T21:11:37.133Z,4.78
2023-04-13T21:14:14.970Z,5.13
2023-04-13T21:17:03.717Z,5.30
2023-04-13T21:19:46.569Z,4.70
2023-04-13T21:22:20.943Z,4.93
2023-04-13T21:24:52.560Z,4.88
2023-04-13T21:27:24.194Z,3.97
2023-04-13T21:32:44.812Z,4.63
2023-04-13T21:35:24.291Z,5.35
2023-04-13T21:37:53.451Z,4.47
2023-04-13T21:40:26.737Z,4.43
2023-04-13T21:42:55.908Z,4.38
2023-04-13T21:45:25.966Z,4.35
2023-04-13T21:47:57.243Z,4.47
2023-04-13T21:50:27.123Z,3.85
2023-04-13T21:52:54.061Z,4.63
2023-04-13T21:55:21.115Z,3.88
2023-04-13T21:57:48.368Z,4.18
2023-04-13T22:00:17.973Z,4.22
2023-04-13T22:02:44.999Z,4.20
2023-04-13T22:05:12.015Z,5.30
2023-04-13T22:07:43.025Z,3.70
2023-04-13T22:10:11.424Z,4.28
2023-04-13T22:12:38.446Z,3.83
2023-04-13T22:15:06.345Z,4.88
2023-04-13T22:17:36.345Z,4.40
2023-04-13T22:20:04.682Z,4.45
2023-04-13T22:22:37.152Z,4.00
2023-04-13T22:25:04.243Z,3.28
2023-04-13T22:27:31.348Z,3.67
2023-04-13T22:29:58.117Z,4.03
2023-04-13T22:32:28.062Z,3.45
2023-04-13T22:34:55.076Z,3.47
2023-04-13T22:37:22.193Z,3.90
2023-04-13T22:39:49.410Z,3.45
2023-04-13T22:42:17.242Z,3.65
2023-04-13T22:44:46.270Z,3.50
2023-04-13T22:47:13.366Z,3.65
2023-04-13T22:49:39.975Z,3.88
2023-04-13T22:52:06.664Z,3.40
2023-04-13T22:54:33.401Z,3.55
2023-04-13T22:57:04.035Z,3.72
2023-04-13T22:59:32.039Z,3.72
2023-04-13T23:02:01.214Z,4.13
2023-04-13T23:04:28.172Z,3.55
2023-04-13T23:06:55.142Z,4.40
2023-04-13T23:09:22.173Z,3.50
2023-04-13T23:11:54.279Z,4.00
2023-04-13T23:14:24.981Z,4.15
2023-04-13T23:16:51.768Z,3.70
2023-04-13T23:19:20.135Z,3.67
2023-04-13T23:21:47.235Z,3.97
2023-04-13T23:24:14.190Z,3.95
2023-04-13T23:26:41.180Z,3.67
2023-04-13T23:29:07.949Z,3.40
2023-04-13T23:31:34.957Z,3.95
2023-04-13T23:34:01.853Z,3.78
2023-04-13T23:36:28.896Z,3.80
2023-04-13T23:38:55.993Z,4.07
2023-04-13T23:49:17.625Z,3.92
2023-04-13T23:51:46.003Z,3.33
2023-04-13T23:54:12.789Z,2.90
2023-04-13T23:56:39.654Z,3.17
2023-04-13T23:59:06.406Z,3.53
